createdAt,value
2018-12-24T00:03:03.475Z,34.12
2018-12-24T00:05:45.640Z,34.17
2018-12-24T00:07:54.900Z,34.92
2018-12-24T00:10:35.230Z,34.58
2018-12-24T00:13:30.498Z,34.62
2018-12-24T00:15:20.310Z,34.70
2018-12-24T00:17:27.003Z,34.85
2018-12-24T00:19:35.463Z,35.08
2018-12-24T00:21:43.169Z,35.21
2018-12-24T00:23:50.830Z,35.23
2018-12-24T00:25:59.457Z,35.25
2018-12-24T00:28:07.004Z,35.37
2018-12-24T00:30:14.741Z,35.42
2018-12-24T00:32:22.557Z,35.29
2018-12-24T00:34:30.244Z,35.37
2018-12-24T00:36:38.160Z,35.41
2018-12-24T00:38:46.091Z,35.46
2018-12-24T00:40:54.359Z,35.51
2018-12-24T00:43:01.928Z,35.65
2018-12-24T00:45:09.543Z,35.49
2018-12-24T00:47:17.378Z,35.68
2018-12-24T00:49:25.017Z,35.76
2018-12-24T00:51:33.263Z,35.86
2018-12-24T00:53:40.926Z,36.44
2018-12-24T00:55:48.628Z,36.34
2018-12-24T00:57:56.366Z,36.42
2018-12-24T01:00:04.004Z,36.15
2018-12-24T01:02:11.494Z,36.40
2018-12-24T01:04:19.002Z,36.32
2018-12-24T01:06:26.569Z,36.30
2018-12-24T01:08:34.932Z,35.84
2018-12-24T01:10:43.619Z,35.62
2018-12-24T01:12:51.134Z,35.66
2018-12-24T01:14:58.758Z,35.81
2018-12-24T01:17:06.572Z,35.58
2018-12-24T01:19:14.303Z,35.59
2018-12-24T01:21:21.889Z,35.72
2018-12-24T01:23:29.884Z,35.69
2018-12-24T01:25:37.041Z,35.66
2018-12-24T01:27:44.597Z,35.61
2018-12-24T01:29:52.402Z,35.66
2018-12-24T01:32:00.047Z,35.51
2018-12-24T01:34:08.543Z,35.52
2018-12-24T01:36:16.887Z,35.51
2018-12-24T01:38:24.637Z,35.57
2018-12-24T01:40:32.317Z,35.53
2018-12-24T01:42:39.954Z,35.74
2018-12-24T01:44:47.979Z,35.46
2018-12-24T01:46:56.022Z,35.84
2018-12-24T01:49:04.233Z,35.55
2018-12-24T01:51:11.980Z,35.63
2018-12-24T01:53:19.708Z,35.57
2018-12-24T01:55:27.255Z,36.08
2018-12-24T01:57:34.775Z,35.98
2018-12-24T02:00:49.593Z,35.98
2018-12-24T02:02:56.733Z,36.25
2018-12-24T02:05:04.051Z,35.77
2018-12-24T02:07:11.525Z,36.03
2018-12-24T02:09:19.444Z,36.10
2018-12-24T02:11:26.671Z,35.85
2018-12-24T02:13:33.705Z,35.50
2018-12-24T02:15:40.816Z,35.69
2018-12-24T02:17:47.929Z,35.63
2018-12-24T02:19:55.097Z,35.23
2018-12-24T02:22:02.877Z,35.27
2018-12-24T02:24:10.093Z,35.36
2018-12-24T02:26:18.289Z,35.24
2018-12-24T02:28:25.408Z,35.24
2018-12-24T02:30:32.662Z,35.27
2018-12-24T02:32:39.870Z,35.42
2018-12-24T02:34:47.354Z,35.27
2018-12-24T02:36:54.780Z,35.55
2018-12-24T02:39:02.484Z,35.54
2018-12-24T02:41:09.636Z,35.69
2018-12-24T02:43:16.991Z,35.65
2018-12-24T02:45:24.562Z,35.43
2018-12-24T02:47:31.694Z,35.44
2018-12-24T02:49:38.946Z,35.90
2018-12-24T02:51:46.303Z,35.63
2018-12-24T02:53:55.129Z,35.38
2018-12-24T02:56:02.237Z,35.75
2018-12-24T02:58:10.299Z,35.48
2018-12-24T03:00:17.952Z,35.66
2018-12-24T03:02:25.655Z,35.33
2018-12-24T03:05:17.563Z,35.49
2018-12-24T03:07:16.452Z,34.60
2018-12-24T03:09:46.767Z,34.73
2018-12-24T03:11:58.185Z,34.91
2018-12-24T03:14:20.963Z,35.01
2018-12-24T03:16:28.498Z,35.79
2018-12-24T03:19:29.559Z,34.99
2018-12-24T03:21:36.938Z,34.90
2018-12-24T03:23:57.015Z,34.83
2018-12-24T03:26:10.967Z,35.67
2018-12-24T03:28:35.545Z,35.77
2018-12-24T03:31:00.103Z,34.92
2018-12-24T03:33:07.948Z,35.13
2018-12-24T03:35:15.264Z,35.10
2018-12-24T03:37:34.331Z,34.11
2018-12-24T03:39:42.211Z,34.66
2018-12-24T03:41:49.438Z,34.39
2018-12-24T03:43:57.009Z,34.46
2018-12-24T03:46:13.473Z,34.31
2018-12-24T03:50:46.089Z,34.51
2018-12-24T03:52:54.281Z,34.53
2018-12-24T03:55:01.648Z,34.74
2018-12-24T03:57:08.905Z,33.86
2018-12-24T03:59:29.140Z,34.23
2018-12-24T04:01:37.286Z,34.59
2018-12-24T04:03:45.731Z,34.50
2018-12-24T04:06:04.649Z,34.25
2018-12-24T04:08:13.173Z,34.14
2018-12-24T04:10:53.830Z,34.22
2018-12-24T04:13:10.982Z,33.99
2018-12-24T04:15:18.991Z,34.23
2018-12-24T04:17:26.819Z,34.50
2018-12-24T04:19:34.190Z,34.54
2018-12-24T04:21:41.478Z,34.57
2018-12-24T04:23:48.848Z,34.47
2018-12-24T04:25:55.934Z,34.46
2018-12-24T04:28:03.203Z,33.75
2018-12-24T04:30:11.158Z,33.44
2018-12-24T04:32:18.443Z,33.46
2018-12-24T04:34:25.739Z,34.53
2018-12-24T04:36:33.176Z,34.50
2018-12-24T04:38:41.567Z,34.30
2018-12-24T04:40:49.193Z,33.88
2018-12-24T04:42:56.536Z,34.64
2018-12-24T04:45:04.285Z,34.56
2018-12-24T04:47:12.210Z,34.56
2018-12-24T04:49:21.018Z,33.88
2018-12-24T04:51:29.175Z,33.92
2018-12-24T04:53:36.904Z,33.92
2018-12-24T04:55:44.734Z,33.89
2018-12-24T04:57:52.610Z,33.28
2018-12-24T05:00:00.406Z,33.53
2018-12-24T05:02:08.223Z,33.97
2018-12-24T05:04:15.483Z,33.84
2018-12-24T05:06:23.700Z,33.05
2018-12-24T05:08:30.806Z,33.04
2018-12-24T05:10:38.811Z,33.27
2018-12-24T05:12:45.989Z,32.82
2018-12-24T05:14:53.463Z,32.83
2018-12-24T05:17:00.690Z,32.76
2018-12-24T05:19:08.023Z,32.74
2018-12-24T05:21:15.402Z,33.78
2018-12-24T05:23:22.634Z,32.76
2018-12-24T05:25:29.832Z,33.15
2018-12-24T05:27:37.611Z,33.51
2018-12-24T05:29:44.774Z,32.79
2018-12-24T05:31:52.960Z,33.17
2018-12-24T05:34:00.052Z,33.48
2018-12-24T05:36:07.369Z,33.78
2018-12-24T05:38:15.242Z,32.89
2018-12-24T05:40:22.494Z,32.55
2018-12-24T05:42:29.809Z,33.32
2018-12-24T05:44:38.614Z,32.39
2018-12-24T05:46:45.733Z,32.72
2018-12-24T05:48:53.057Z,32.63
2018-12-24T05:51:01.133Z,33.41
2018-12-24T05:53:08.320Z,32.53
2018-12-24T05:57:27.896Z,32.41
2018-12-24T05:59:35.415Z,32.37
2018-12-24T06:01:42.656Z,32.41
2018-12-24T06:06:04.014Z,32.46
2018-12-24T06:08:11.081Z,33.45
2018-12-24T06:10:18.727Z,33.90
2018-12-24T06:12:25.724Z,32.89
2018-12-24T06:14:32.417Z,33.40
2018-12-24T06:16:39.738Z,33.23
2018-12-24T06:18:47.087Z,32.28
2018-12-24T06:20:54.326Z,32.37
2018-12-24T06:23:01.619Z,32.16
2018-12-24T06:25:09.539Z,31.43
2018-12-24T06:27:16.830Z,32.52
2018-12-24T06:29:24.412Z,32.09
2018-12-24T06:31:32.453Z,32.77
2018-12-24T06:33:39.430Z,32.81
2018-12-24T06:35:46.703Z,33.28
2018-12-24T06:37:54.713Z,32.92
2018-12-24T06:40:02.307Z,33.17
2018-12-24T06:42:09.484Z,32.96
2018-12-24T06:44:16.466Z,32.80
2018-12-24T06:46:23.719Z,33.00
2018-12-24T06:48:30.919Z,32.77
2018-12-24T06:50:38.704Z,32.88
2018-12-24T06:52:45.840Z,33.10
2018-12-24T06:54:53.072Z,33.13
2018-12-24T06:57:01.437Z,33.45
2018-12-24T06:59:08.405Z,34.15
2018-12-24T07:01:16.247Z,33.92
2018-12-24T07:03:23.443Z,33.76
2018-12-24T07:05:30.743Z,33.64
2018-12-24T07:07:38.129Z,33.63
2018-12-24T07:09:46.031Z,33.75
2018-12-24T07:11:53.285Z,33.50
2018-12-24T07:14:00.619Z,33.65
2018-12-24T07:16:07.911Z,34.41
2018-12-24T07:18:15.301Z,33.64
2018-12-24T07:20:23.062Z,33.25
2018-12-24T07:22:30.173Z,32.94
2018-12-24T07:24:37.304Z,32.59
2018-12-24T07:26:45.040Z,32.17
2018-12-24T07:28:58.982Z,31.87
2018-12-24T07:31:02.124Z,31.86
2018-12-24T07:33:09.598Z,32.76
2018-12-24T07:35:16.814Z,32.20
2018-12-24T07:37:23.944Z,32.45
2018-12-24T07:39:31.760Z,32.65
2018-12-24T07:41:39.187Z,32.50
2018-12-24T07:43:46.212Z,32.68
2018-12-24T07:45:53.392Z,33.18
2018-12-24T07:48:00.611Z,33.22
2018-12-24T07:50:07.730Z,33.37
2018-12-24T07:52:14.904Z,33.30
2018-12-24T07:54:22.254Z,33.58
2018-12-24T07:56:30.734Z,33.26
2018-12-24T07:58:39.483Z,33.65
2018-12-24T08:00:46.800Z,33.34
2018-12-24T08:02:53.957Z,33.59
2018-12-24T08:05:01.210Z,33.63
2018-12-24T08:07:08.927Z,33.93
2018-12-24T08:09:16.318Z,33.49
2018-12-24T08:11:24.022Z,33.56
2018-12-24T08:13:31.168Z,33.95
2018-12-24T08:15:38.867Z,33.72
2018-12-24T08:17:45.966Z,33.60
2018-12-24T08:19:54.246Z,33.29
2018-12-24T08:22:01.418Z,33.68
2018-12-24T08:24:08.682Z,33.78
2018-12-24T08:26:15.959Z,33.55
2018-12-24T08:28:22.984Z,33.32
2018-12-24T08:30:30.162Z,32.97
2018-12-24T08:32:37.372Z,32.85
2018-12-24T08:34:45.432Z,32.41
2018-12-24T08:36:52.654Z,32.29
2018-12-24T08:39:00.243Z,31.91
2018-12-24T08:41:07.577Z,31.91
2018-12-24T08:43:14.912Z,31.56
2018-12-24T08:45:22.279Z,32.32
2018-12-24T08:47:29.467Z,31.41
2018-12-24T08:49:36.609Z,32.15
2018-12-24T08:51:43.727Z,32.24
2018-12-24T08:53:50.929Z,32.22
2018-12-24T08:55:58.296Z,32.66
2018-12-24T08:58:05.344Z,32.57
2018-12-24T09:00:14.051Z,32.25
2018-12-24T09:02:21.354Z,32.53
2018-12-24T09:04:28.678Z,32.47
2018-12-24T09:06:36.193Z,32.84
2018-12-24T09:08:43.241Z,32.82
2018-12-24T09:10:50.541Z,32.84
2018-12-24T09:12:57.856Z,32.96
2018-12-24T09:15:05.775Z,33.06
2018-12-24T09:17:13.507Z,32.97
2018-12-24T09:19:20.685Z,33.13
2018-12-24T09:21:28.156Z,33.28
2018-12-24T09:23:35.498Z,33.31
2018-12-24T09:25:42.887Z,33.04
2018-12-24T09:27:49.735Z,33.42
2018-12-24T09:29:56.962Z,33.48
2018-12-24T09:32:04.228Z,33.54
2018-12-24T09:34:11.600Z,33.11
2018-12-24T09:36:18.937Z,33.04
2018-12-24T09:38:25.953Z,33.10
2018-12-24T09:40:33.050Z,33.23
2018-12-24T09:42:40.167Z,32.42
2018-12-24T09:44:47.529Z,32.59
2018-12-24T09:46:54.471Z,31.75
2018-12-24T09:49:02.278Z,31.79
2018-12-24T09:51:10.264Z,32.02
2018-12-24T09:53:17.451Z,31.79
2018-12-24T09:55:24.712Z,31.01
2018-12-24T09:57:32.479Z,32.04
2018-12-24T09:59:40.267Z,31.95
2018-12-24T10:01:47.306Z,32.48
2018-12-24T10:04:02.807Z,32.50
2018-12-24T10:06:13.442Z,32.33
2018-12-24T10:08:22.808Z,32.62
2018-12-24T10:10:29.992Z,33.01
2018-12-24T10:12:37.146Z,32.51
2018-12-24T10:14:45.166Z,32.98
2018-12-24T10:16:52.254Z,33.08
2018-12-24T10:19:00.314Z,32.73
2018-12-24T10:21:08.116Z,33.04
2018-12-24T10:23:15.181Z,32.86
2018-12-24T10:25:22.966Z,33.18
2018-12-24T10:27:30.199Z,32.87
2018-12-24T10:29:37.384Z,33.10
2018-12-24T10:31:45.269Z,33.01
2018-12-24T10:33:53.244Z,32.58
2018-12-24T10:36:00.261Z,32.61
2018-12-24T10:38:08.117Z,32.20
2018-12-24T10:40:19.527Z,32.05
2018-12-24T10:42:27.197Z,33.08
2018-12-24T10:44:34.294Z,33.70
2018-12-24T10:46:41.408Z,33.34
2018-12-24T10:48:49.238Z,33.52
2018-12-24T10:50:56.954Z,33.55
2018-12-24T10:53:04.603Z,33.97
2018-12-24T10:55:12.311Z,33.71
2018-12-24T10:57:19.337Z,33.56
2018-12-24T10:59:26.579Z,33.60
2018-12-24T11:01:33.937Z,33.59
2018-12-24T11:03:41.855Z,33.83
2018-12-24T11:05:49.122Z,33.53
2018-12-24T11:07:56.419Z,33.91
2018-12-24T11:10:03.496Z,33.33
2018-12-24T11:12:11.726Z,34.27
2018-12-24T11:14:19.063Z,33.00
2018-12-24T11:16:26.367Z,33.09
2018-12-24T11:18:34.412Z,32.46
2018-12-24T11:20:41.912Z,32.46
2018-12-24T11:22:48.818Z,32.24
2018-12-24T11:24:56.143Z,33.10
2018-12-24T11:27:03.385Z,32.92
2018-12-24T11:29:10.457Z,32.74
2018-12-24T11:31:18.204Z,33.40
2018-12-24T11:33:25.227Z,33.24
2018-12-24T11:35:32.441Z,33.29
2018-12-24T11:37:39.643Z,33.57
2018-12-24T11:39:47.125Z,33.35
2018-12-24T11:41:54.185Z,33.77
2018-12-24T11:44:01.326Z,33.90
2018-12-24T11:46:09.139Z,33.86
2018-12-24T11:48:16.365Z,33.94
2018-12-24T11:50:23.355Z,33.92
2018-12-24T11:52:30.644Z,33.86
2018-12-24T11:54:38.606Z,33.86
2018-12-24T11:56:45.926Z,33.78
2018-12-24T11:58:54.098Z,33.99
2018-12-24T12:01:01.226Z,33.96
2018-12-24T12:03:09.309Z,33.87
2018-12-24T12:05:16.293Z,33.91
2018-12-24T12:07:23.406Z,33.50
2018-12-24T12:09:30.834Z,32.90
2018-12-24T12:11:38.369Z,32.81
2018-12-24T12:13:45.381Z,32.70
2018-12-24T12:15:52.763Z,32.77
2018-12-24T12:17:59.964Z,32.28
2018-12-24T12:20:07.274Z,32.00
2018-12-24T12:22:14.655Z,31.88
2018-12-24T12:24:21.768Z,31.88
2018-12-24T12:26:30.342Z,31.79
2018-12-24T12:28:37.667Z,31.64
2018-12-24T12:30:44.784Z,31.70
2018-12-24T12:32:51.825Z,31.91
2018-12-24T12:34:59.163Z,31.46
2018-12-24T12:37:06.855Z,31.52
2018-12-24T12:39:13.934Z,31.28
2018-12-24T12:41:21.475Z,31.48
2018-12-24T12:43:28.520Z,31.25
2018-12-24T12:45:35.811Z,31.19
2018-12-24T12:47:43.197Z,31.19
2018-12-24T12:49:50.227Z,31.72
2018-12-24T12:51:57.414Z,31.07
2018-12-24T12:54:05.171Z,31.06
2018-12-24T12:56:12.288Z,31.32
2018-12-24T12:58:19.296Z,31.11
2018-12-24T13:00:27.046Z,31.02
2018-12-24T13:02:34.333Z,31.13
2018-12-24T13:04:41.645Z,31.14
2018-12-24T13:06:48.681Z,30.98
2018-12-24T13:08:55.989Z,30.79
2018-12-24T13:11:03.333Z,30.79
2018-12-24T13:13:11.010Z,31.68
2018-12-24T13:15:18.365Z,31.06
2018-12-24T13:17:25.443Z,30.84
2018-12-24T13:19:33.247Z,30.83
2018-12-24T13:21:41.968Z,30.83
2018-12-24T13:23:49.502Z,30.83
2018-12-24T13:26:16.187Z,30.88
2018-12-24T13:28:24.080Z,30.73
2018-12-24T13:30:31.414Z,31.94
2018-12-24T13:32:39.103Z,32.10
2018-12-24T13:34:46.127Z,32.18
2018-12-24T13:36:53.287Z,32.66
2018-12-24T13:39:00.505Z,32.97
2018-12-24T13:41:08.503Z,33.14
2018-12-24T13:43:15.824Z,33.18
2018-12-24T13:45:23.173Z,32.94
2018-12-24T13:47:30.614Z,33.03
2018-12-24T13:49:37.644Z,32.81
2018-12-24T13:51:45.004Z,32.15
2018-12-24T13:53:52.251Z,32.32
2018-12-24T13:55:59.865Z,31.93
2018-12-24T13:58:07.162Z,31.57
2018-12-24T14:00:15.315Z,31.79
2018-12-24T14:02:22.611Z,32.13
2018-12-24T14:04:30.724Z,31.46
2018-12-24T14:06:38.766Z,31.42
2018-12-24T14:08:46.018Z,32.03
2018-12-24T14:10:53.453Z,32.48
2018-12-24T14:13:01.387Z,32.47
2018-12-24T14:15:09.122Z,32.84
2018-12-24T14:17:17.123Z,32.77
2018-12-24T14:19:24.371Z,32.88
2018-12-24T14:21:31.439Z,33.16
2018-12-24T14:23:39.271Z,33.59
2018-12-24T14:25:46.455Z,32.93
2018-12-24T14:27:53.668Z,32.64
2018-12-24T14:30:01.559Z,33.10
2018-12-24T14:32:09.129Z,32.21
2018-12-24T14:34:21.433Z,32.67
2018-12-24T14:36:28.835Z,31.95
2018-12-24T14:38:36.514Z,32.24
2018-12-24T14:40:44.135Z,31.83
2018-12-24T14:42:51.258Z,32.28
2018-12-24T14:44:58.840Z,31.61
2018-12-24T14:47:06.677Z,32.47
2018-12-24T14:49:14.069Z,32.72
2018-12-24T14:51:21.303Z,32.51
2018-12-24T14:53:28.661Z,32.66
2018-12-24T14:55:35.797Z,33.14
2018-12-24T14:57:43.060Z,33.09
2018-12-24T14:59:50.472Z,33.78
2018-12-24T15:01:57.787Z,33.54
2018-12-24T15:04:04.978Z,33.36
2018-12-24T15:06:12.393Z,33.35
2018-12-24T15:08:19.797Z,33.87
2018-12-24T15:10:27.098Z,33.75
2018-12-24T15:12:35.014Z,34.64
2018-12-24T15:14:43.857Z,34.52
2018-12-24T15:16:52.830Z,33.83
2018-12-24T15:19:01.533Z,33.50
2018-12-24T15:21:08.695Z,33.19
2018-12-24T15:23:15.925Z,34.01
2018-12-24T15:25:23.431Z,32.97
2018-12-24T15:27:30.956Z,33.33
2018-12-24T15:29:38.241Z,35.01
2018-12-24T15:31:45.576Z,32.31
2018-12-24T15:33:52.657Z,32.72
2018-12-24T15:36:01.175Z,33.09
2018-12-24T15:38:15.586Z,32.35
2018-12-24T15:40:22.848Z,32.45
2018-12-24T15:42:32.108Z,32.82
2018-12-24T15:44:39.760Z,32.94
2018-12-24T15:46:47.245Z,32.72
2018-12-24T15:49:30.783Z,33.20
2018-12-24T15:52:07.470Z,33.74
2018-12-24T15:54:15.107Z,33.90
2018-12-24T15:56:22.158Z,34.05
2018-12-24T15:58:29.520Z,33.78
2018-12-24T16:00:37.159Z,34.50
2018-12-24T16:02:45.990Z,34.54
2018-12-24T16:04:53.497Z,34.39
2018-12-24T16:07:02.063Z,34.41
2018-12-24T16:09:10.753Z,34.36
2018-12-24T16:11:18.159Z,34.24
2018-12-24T16:13:25.531Z,34.37
2018-12-24T16:15:51.980Z,34.52
2018-12-24T16:18:00.205Z,33.89
2018-12-24T16:20:08.119Z,34.32
2018-12-24T16:22:15.924Z,33.89
2018-12-24T16:25:27.721Z,34.13
2018-12-24T16:27:15.592Z,34.18
2018-12-24T16:29:23.737Z,34.49
2018-12-24T16:31:31.880Z,33.50
2018-12-24T16:33:38.969Z,33.31
2018-12-24T16:35:46.929Z,32.44
2018-12-24T16:37:54.143Z,31.80
2018-12-24T16:40:05.239Z,31.35
2018-12-24T16:42:12.570Z,32.02
2018-12-24T16:44:20.320Z,31.93
2018-12-24T16:46:27.483Z,32.24
2018-12-24T16:48:34.787Z,32.50
2018-12-24T16:50:54.056Z,32.77
2018-12-24T16:53:01.122Z,32.86
2018-12-24T16:55:09.141Z,32.93
2018-12-24T16:57:16.499Z,33.08
2018-12-24T16:59:24.263Z,33.27
2018-12-24T17:01:31.683Z,33.35
2018-12-24T17:03:39.333Z,33.58
2018-12-24T17:05:48.566Z,33.59
2018-12-24T17:08:10.987Z,33.62
2018-12-24T17:10:31.518Z,33.20
2018-12-24T17:12:55.569Z,32.89
2018-12-24T17:15:23.079Z,32.22
2018-12-24T17:17:30.849Z,32.35
2018-12-24T17:19:38.453Z,31.71
2018-12-24T17:21:46.070Z,32.11
2018-12-24T17:23:53.502Z,31.77
2018-12-24T17:26:01.026Z,31.23
2018-12-24T17:28:09.252Z,31.63
2018-12-24T17:30:17.188Z,31.88
2018-12-24T17:32:24.715Z,32.33
2018-12-24T17:34:32.106Z,32.34
2018-12-24T17:36:39.374Z,32.83
2018-12-24T17:38:46.701Z,32.73
2018-12-24T17:40:53.910Z,32.92
2018-12-24T17:43:01.299Z,33.10
2018-12-24T17:45:08.906Z,33.03
2018-12-24T17:47:16.628Z,33.31
2018-12-24T17:49:24.168Z,33.58
2018-12-24T17:51:31.432Z,33.38
2018-12-24T17:53:39.544Z,33.57
2018-12-24T17:55:46.872Z,33.55
2018-12-24T17:57:54.322Z,33.43
2018-12-24T18:00:01.753Z,33.59
2018-12-24T18:02:09.164Z,33.77
2018-12-24T18:04:16.586Z,33.62
2018-12-24T18:06:23.535Z,33.72
2018-12-24T18:08:31.148Z,33.73
2018-12-24T18:10:38.373Z,33.74
2018-12-24T18:12:46.553Z,33.83
2018-12-24T18:14:54.049Z,33.88
2018-12-24T18:17:01.382Z,33.76
2018-12-24T18:19:08.735Z,33.98
2018-12-24T18:21:15.747Z,34.47
2018-12-24T18:23:22.937Z,34.92
2018-12-24T18:25:32.596Z,34.79
2018-12-24T18:27:40.049Z,35.29
2018-12-24T18:29:49.354Z,35.02
2018-12-24T18:32:04.890Z,34.63
2018-12-24T18:34:17.711Z,34.82
2018-12-24T18:36:33.724Z,34.37
2018-12-24T18:38:41.201Z,34.83
2018-12-24T18:40:48.491Z,34.61
2018-12-24T18:42:55.501Z,34.36
2018-12-24T18:45:02.836Z,34.93
2018-12-24T18:47:10.450Z,35.35
2018-12-24T18:49:17.976Z,34.92
2018-12-24T18:51:25.629Z,34.65
2018-12-24T18:53:33.635Z,35.12
2018-12-24T18:55:41.117Z,35.57
2018-12-24T18:57:48.094Z,34.74
2018-12-24T18:59:55.301Z,35.59
2018-12-24T19:02:03.476Z,35.62
2018-12-24T19:04:10.597Z,35.44
2018-12-24T19:06:17.753Z,35.75
2018-12-24T19:08:25.404Z,35.63
2018-12-24T19:10:33.179Z,35.47
2018-12-24T19:12:41.238Z,36.13
2018-12-24T19:14:48.517Z,35.77
2018-12-24T19:16:55.680Z,34.99
2018-12-24T19:19:04.116Z,35.00
2018-12-24T19:21:11.332Z,35.59
2018-12-24T19:23:19.073Z,36.98
2018-12-24T19:25:26.319Z,37.08
2018-12-24T19:27:33.400Z,36.35
2018-12-24T19:29:40.818Z,37.09
2018-12-24T19:31:47.972Z,37.72
2018-12-24T19:33:55.175Z,37.19
2018-12-24T19:36:02.487Z,37.40
2018-12-24T19:38:09.744Z,37.62
2018-12-24T19:40:17.396Z,36.60
2018-12-24T19:42:24.738Z,37.10
2018-12-24T19:44:32.817Z,36.95
2018-12-24T19:46:40.098Z,36.91
2018-12-24T19:48:48.436Z,36.05
2018-12-24T19:50:55.670Z,35.28
2018-12-24T19:53:03.077Z,35.08
2018-12-24T19:55:10.637Z,34.34
2018-12-24T19:57:17.949Z,33.70
2018-12-24T19:59:25.799Z,33.50
2018-12-24T20:01:33.578Z,34.22
2018-12-24T20:03:41.262Z,34.34
2018-12-24T20:05:49.683Z,33.80
2018-12-24T20:07:57.386Z,34.37
2018-12-24T20:10:05.446Z,34.61
2018-12-24T20:12:12.528Z,34.58
2018-12-24T20:14:21.146Z,34.62
2018-12-24T20:16:28.450Z,34.38
2018-12-24T20:18:35.686Z,34.23
2018-12-24T20:20:43.038Z,34.84
2018-12-24T20:22:50.157Z,34.81
2018-12-24T20:24:57.166Z,35.07
2018-12-24T20:27:05.014Z,34.67
2018-12-24T20:29:13.696Z,35.14
2018-12-24T20:31:22.422Z,35.37
2018-12-24T20:33:30.445Z,35.27
2018-12-24T20:35:39.098Z,35.33
2018-12-24T20:37:46.717Z,35.34
2018-12-24T20:39:54.306Z,35.17
2018-12-24T20:42:02.773Z,34.98
2018-12-24T20:44:10.591Z,35.06
2018-12-24T20:46:18.599Z,35.26
2018-12-24T20:48:25.936Z,35.25
2018-12-24T20:50:33.171Z,34.58
2018-12-24T20:52:40.363Z,35.19
2018-12-24T20:54:47.725Z,35.28
2018-12-24T20:56:56.393Z,35.42
2018-12-24T20:59:03.562Z,35.38
2018-12-24T21:01:11.610Z,35.03
2018-12-24T21:03:18.833Z,34.12
2018-12-24T21:05:26.555Z,34.32
2018-12-24T21:07:33.902Z,33.92
2018-12-24T21:09:41.140Z,33.63
2018-12-24T21:11:49.191Z,33.56
2018-12-24T21:13:56.550Z,33.36
2018-12-24T21:16:03.909Z,32.88
2018-12-24T21:18:15.037Z,32.29
2018-12-24T21:20:19.738Z,30.37
2018-12-24T21:22:26.429Z,32.66
2018-12-24T21:24:34.302Z,33.17
2018-12-24T21:26:41.035Z,33.41
2018-12-24T21:28:47.880Z,33.73
2018-12-24T21:30:55.476Z,33.94
2018-12-24T21:33:02.736Z,34.25
2018-12-24T21:35:10.232Z,34.25
2018-12-24T21:37:18.377Z,34.19
2018-12-24T21:39:26.467Z,34.28
2018-12-24T21:41:33.664Z,34.75
2018-12-24T21:43:40.959Z,34.90
2018-12-24T21:45:48.329Z,34.48
2018-12-24T21:47:55.550Z,33.88
2018-12-24T21:50:03.100Z,33.60
2018-12-24T21:52:10.416Z,33.17
2018-12-24T21:54:17.648Z,33.20
2018-12-24T21:56:26.054Z,32.23
2018-12-24T21:58:33.258Z,32.02
2018-12-24T22:00:41.734Z,31.95
2018-12-24T22:02:49.186Z,32.97
2018-12-24T22:04:56.434Z,32.60
2018-12-24T22:07:03.693Z,33.29
2018-12-24T22:09:11.307Z,33.52
2018-12-24T22:11:18.329Z,33.35
2018-12-24T22:13:26.359Z,33.86
2018-12-24T22:15:33.580Z,33.58
2018-12-24T22:17:41.060Z,33.16
2018-12-24T22:19:48.375Z,33.80
2018-12-24T22:21:55.447Z,33.78
2018-12-24T22:24:03.682Z,33.54
2018-12-24T22:26:11.617Z,34.26
2018-12-24T22:28:18.920Z,34.01
2018-12-24T22:30:26.281Z,33.81
2018-12-24T22:32:34.794Z,33.34
2018-12-24T22:34:42.027Z,33.05
2018-12-24T22:36:49.081Z,32.56
2018-12-24T22:38:56.349Z,32.12
2018-12-24T22:41:03.647Z,31.93
2018-12-24T22:43:10.953Z,31.63
2018-12-24T22:45:18.362Z,32.15
2018-12-24T22:47:25.502Z,33.78
2018-12-24T22:49:32.966Z,31.71
2018-12-24T22:51:40.439Z,32.83
2018-12-24T22:53:47.876Z,32.65
2018-12-24T22:55:55.608Z,33.14
2018-12-24T22:58:02.857Z,33.80
2018-12-24T23:00:14.112Z,33.76
2018-12-24T23:02:22.600Z,33.97
2018-12-24T23:04:30.912Z,34.01
2018-12-24T23:06:38.351Z,33.61
2018-12-24T23:08:45.683Z,32.76
2018-12-24T23:13:08.026Z,33.50
2018-12-24T23:15:15.229Z,33.58
2018-12-24T23:17:22.525Z,36.06
2018-12-24T23:19:30.038Z,34.62
2018-12-24T23:21:37.357Z,32.67
2018-12-24T23:23:44.389Z,33.17
2018-12-24T23:25:51.870Z,33.79
2018-12-24T23:27:59.147Z,32.06
2018-12-24T23:30:07.224Z,31.87
2018-12-24T23:32:14.360Z,31.68
2018-12-24T23:34:21.837Z,32.78
2018-12-24T23:36:29.260Z,32.15
2018-12-24T23:38:36.403Z,33.10
2018-12-24T23:40:44.245Z,33.02
2018-12-24T23:42:51.617Z,34.11
2018-12-24T23:44:59.519Z,35.08
2018-12-24T23:47:06.946Z,34.14
2018-12-24T23:49:14.222Z,34.89
2018-12-24T23:51:21.437Z,34.73
2018-12-24T23:53:28.728Z,34.64
2018-12-24T23:55:36.530Z,34.41
2018-12-24T23:57:43.904Z,35.61
2018-12-24T23:59:51.623Z,36.22
